Terminal Aerodrome Forecast
Issued by NWS

Home | Current Version | Previous Version | Text Only | Print | Product List | Glossary On
Versions: 1 2 3 4 5 6 7 8 9 10 11 12 13 14 15 16 17
000
FTUS46 KMTR 280535
TAFOAK
TAF
KOAK 280535Z 2806/2912 26011KT P6SM BKN011
     FM281000 27008KT P6SM OVC005
     FM281730 26006KT P6SM FEW015
     FM282100 29012KT P6SM FEW020
     FM290300 28013KT P6SM BKN015=

USA.gov is the U.S. government's official web portal to all federal, state and local government web resources and services.